createdAt,value
2018-06-30T00:01:58.898Z,14.30
2018-06-30T00:04:28.590Z,13.07
2018-06-30T00:07:01.231Z,13.30
2018-06-30T00:09:29.830Z,12.43
2018-06-30T00:12:03.758Z,13.03
2018-06-30T00:14:33.380Z,12.70
2018-06-30T00:17:08.838Z,12.80
2018-06-30T00:19:42.417Z,13.33
2018-06-30T00:25:07.482Z,12.87
2018-06-30T00:27:40.174Z,12.53
2018-06-30T00:30:14.062Z,12.63
2018-06-30T00:32:44.633Z,12.23
2018-06-30T00:35:13.254Z,12.90
2018-06-30T00:37:46.818Z,14.03
2018-06-30T00:40:17.405Z,12.93
2018-06-30T00:42:46.154Z,13.27
2018-06-30T00:45:21.544Z,13.00
2018-06-30T00:47:53.864Z,12.57
2018-06-30T00:50:40.382Z,13.83
2018-06-30T00:53:20.734Z,13.47
2018-06-30T00:55:51.304Z,13.57
2018-06-30T00:58:23.316Z,13.60
2018-06-30T01:01:16.018Z,14.10
2018-06-30T01:03:48.075Z,14.13
2018-06-30T01:06:20.172Z,14.37
2018-06-30T01:08:54.955Z,14.03
2018-06-30T01:11:23.337Z,14.00
2018-06-30T01:13:52.990Z,12.83
2018-06-30T01:16:23.535Z,13.57
2018-06-30T01:19:09.997Z,13.13
2018-06-30T01:21:42.735Z,14.00
2018-06-30T01:24:11.089Z,13.80
2018-06-30T01:26:44.378Z,14.10
2018-06-30T01:29:13.034Z,13.53
2018-06-30T01:31:41.478Z,14.47
2018-06-30T01:34:11.966Z,13.70
2018-06-30T01:36:40.662Z,13.70
2018-06-30T01:39:12.748Z,14.30
2018-06-30T01:41:44.748Z,13.93
2018-06-30T01:44:21.155Z,14.10
2018-06-30T01:46:50.686Z,14.90
2018-06-30T01:49:25.878Z,13.77
2018-06-30T01:51:55.510Z,14.13
2018-06-30T01:54:26.960Z,14.77
2018-06-30T01:56:56.497Z,14.77
2018-06-30T01:59:32.316Z,15.30
2018-06-30T02:02:03.818Z,15.27
2018-06-30T02:04:34.314Z,14.40
2018-06-30T02:07:03.149Z,15.00
2018-06-30T02:09:37.262Z,15.43
2018-06-30T02:12:08.969Z,15.80
2018-06-30T02:14:38.616Z,15.40
2018-06-30T02:17:14.956Z,15.70
2018-06-30T02:19:44.551Z,15.43
2018-06-30T02:22:24.278Z,14.63
2018-06-30T02:25:16.709Z,15.30
2018-06-30T02:27:48.434Z,16.20
2018-06-30T02:30:18.865Z,15.73
2018-06-30T02:32:49.455Z,16.03
2018-06-30T02:35:19.947Z,15.63
2018-06-30T02:37:55.762Z,16.20
2018-06-30T02:40:24.682Z,16.77
2018-06-30T02:42:54.338Z,15.67
2018-06-30T02:45:23.059Z,15.20
2018-06-30T02:47:51.704Z,15.40
2018-06-30T02:50:22.287Z,15.50
2018-06-30T02:52:51.878Z,16.37
2018-06-30T02:55:21.482Z,15.33
2018-06-30T02:57:50.135Z,15.40
2018-06-30T03:00:19.710Z,15.00
2018-06-30T03:02:48.134Z,14.63
2018-06-30T03:05:20.836Z,15.90
2018-06-30T03:07:55.940Z,15.33
2018-06-30T03:10:28.597Z,15.23
2018-06-30T03:13:04.678Z,15.73
2018-06-30T03:15:38.886Z,16.60
2018-06-30T03:18:07.452Z,14.80
2018-06-30T03:20:38.104Z,16.10
2018-06-30T03:23:06.634Z,16.03
2018-06-30T03:25:35.210Z,15.33
2018-06-30T03:28:13.704Z,16.87
2018-06-30T03:30:54.368Z,15.63
2018-06-30T03:33:22.772Z,16.07
2018-06-30T03:35:51.428Z,16.70
2018-06-30T03:38:23.318Z,16.90
2018-06-30T03:40:59.264Z,16.73
2018-06-30T03:43:40.266Z,16.57
2018-06-30T03:46:09.914Z,17.43
2018-06-30T03:48:38.532Z,17.87
2018-06-30T03:51:08.938Z,16.43
2018-06-30T03:53:38.435Z,17.07
2018-06-30T03:56:08.944Z,17.30
2018-06-30T03:58:37.746Z,16.20
2018-06-30T04:01:06.398Z,16.60
2018-06-30T04:03:55.256Z,16.70
2018-06-30T04:06:23.988Z,15.70
2018-06-30T04:09:01.806Z,16.90
2018-06-30T04:11:36.818Z,17.03
2018-06-30T04:14:10.106Z,16.37
2018-06-30T04:16:56.759Z,17.50
2018-06-30T04:19:25.111Z,17.03
2018-06-30T04:22:08.289Z,17.00
2018-06-30T04:24:48.309Z,18.10
2018-06-30T04:27:24.092Z,17.13
2018-06-30T04:29:56.436Z,17.33
2018-06-30T04:32:28.550Z,17.60
2018-06-30T04:35:08.251Z,17.90
2018-06-30T04:37:44.370Z,17.20
2018-06-30T04:40:14.826Z,18.07
2018-06-30T04:42:43.206Z,18.33
2018-06-30T04:45:12.948Z,17.60
2018-06-30T04:47:44.394Z,18.53
2018-06-30T04:50:16.995Z,19.60
2018-06-30T04:52:53.021Z,19.50
2018-06-30T04:55:38.347Z,19.20
2018-06-30T04:58:12.244Z,19.77
2018-06-30T05:00:44.924Z,19.67
2018-06-30T05:06:09.984Z,20.33
2018-06-30T05:08:42.017Z,19.70
2018-06-30T05:11:17.783Z,20.50
2018-06-30T05:13:46.489Z,19.73
2018-06-30T05:16:15.157Z,21.17
2018-06-30T05:18:43.783Z,19.10
2018-06-30T05:21:13.383Z,19.93
2018-06-30T05:23:54.265Z,20.70
2018-06-30T05:26:39.342Z,20.97
2018-06-30T05:29:18.502Z,20.43
2018-06-30T05:32:11.785Z,20.50
2018-06-30T05:34:43.225Z,19.70
2018-06-30T05:37:12.888Z,21.03
2018-06-30T05:39:46.718Z,20.30
2018-06-30T05:42:15.117Z,20.50
2018-06-30T05:44:44.734Z,20.53
2018-06-30T05:47:17.701Z,20.43
2018-06-30T05:49:58.059Z,21.07
2018-06-30T05:52:32.963Z,20.13
2018-06-30T05:55:01.604Z,20.83
2018-06-30T05:57:38.392Z,20.83
2018-06-30T06:00:14.047Z,20.93
2018-06-30T06:02:48.366Z,20.70
2018-06-30T06:05:16.948Z,21.23
2018-06-30T06:07:46.023Z,21.70
2018-06-30T06:10:14.641Z,21.93
2018-06-30T06:12:43.324Z,20.30
2018-06-30T06:15:13.915Z,20.47
2018-06-30T06:17:44.301Z,20.00
2018-06-30T06:20:12.746Z,19.50
2018-06-30T06:22:42.324Z,18.30
2018-06-30T06:25:20.310Z,18.97
2018-06-30T06:27:52.394Z,18.57
2018-06-30T06:30:32.746Z,19.53
2018-06-30T06:33:05.087Z,17.60
2018-06-30T06:35:33.776Z,19.97
2018-06-30T06:38:02.846Z,18.53
2018-06-30T06:40:31.654Z,19.17
2018-06-30T06:43:00.331Z,19.07
2018-06-30T06:45:35.315Z,18.60
2018-06-30T06:48:21.207Z,18.43
2018-06-30T06:50:57.271Z,18.13
2018-06-30T06:53:40.401Z,19.33
2018-06-30T06:56:14.536Z,19.10
2018-06-30T06:58:51.545Z,20.47
2018-06-30T07:01:38.392Z,18.47
2018-06-30T07:04:08.168Z,20.57
2018-06-30T07:06:37.871Z,18.53
2018-06-30T07:09:08.417Z,19.53
2018-06-30T07:11:44.278Z,19.00
2018-06-30T07:14:13.108Z,18.03
2018-06-30T07:16:49.328Z,18.53
2018-06-30T07:19:19.960Z,19.37
2018-06-30T07:22:01.030Z,19.13
2018-06-30T07:24:31.357Z,19.37
2018-06-30T07:27:01.066Z,19.10
2018-06-30T07:29:35.492Z,19.83
2018-06-30T07:32:17.584Z,20.87
2018-06-30T07:34:47.418Z,20.40
2018-06-30T07:37:16.063Z,20.90
2018-06-30T07:39:45.624Z,21.27
2018-06-30T07:42:19.823Z,22.40
2018-06-30T07:44:49.492Z,20.33
2018-06-30T07:47:22.244Z,21.60
2018-06-30T07:50:15.031Z,20.67
2018-06-30T07:52:56.584Z,21.37
2018-06-30T07:55:39.146Z,20.70
2018-06-30T07:58:08.800Z,22.00
2018-06-30T08:00:40.571Z,22.10
2018-06-30T08:03:26.036Z,21.77
2018-06-30T08:05:57.838Z,21.17
2018-06-30T08:08:32.406Z,21.63
2018-06-30T08:11:02.071Z,21.77
2018-06-30T08:13:34.398Z,21.87
2018-06-30T08:16:03.274Z,21.10
2018-06-30T08:18:37.553Z,21.83
2018-06-30T08:21:08.229Z,20.70
2018-06-30T08:23:36.892Z,22.23
2018-06-30T08:26:05.686Z,21.80
2018-06-30T08:28:37.804Z,19.33
2018-06-30T08:31:08.485Z,19.57
2018-06-30T08:33:38.014Z,20.20
2018-06-30T08:36:08.052Z,19.93
2018-06-30T08:38:42.728Z,18.57
2018-06-30T08:41:11.493Z,19.03
2018-06-30T08:43:49.964Z,19.97
2018-06-30T08:46:18.677Z,19.67
2018-06-30T08:48:51.385Z,19.00
2018-06-30T08:51:28.319Z,18.33
2018-06-30T08:53:56.691Z,19.03
2018-06-30T08:56:25.427Z,17.63
2018-06-30T08:59:17.084Z,17.47
2018-06-30T09:01:52.848Z,16.97
2018-06-30T09:04:27.131Z,15.17
2018-06-30T09:12:53.967Z,16.60
2018-06-30T09:15:38.845Z,17.33
2018-06-30T09:18:17.135Z,15.63
2018-06-30T09:20:47.761Z,17.93
2018-06-30T09:26:11.907Z,14.17
2018-06-30T09:28:46.457Z,15.97
2018-06-30T09:31:17.223Z,15.90
2018-06-30T09:34:06.331Z,15.57
2018-06-30T09:36:36.062Z,15.07
2018-06-30T09:39:07.719Z,15.27
2018-06-30T09:41:36.478Z,15.30
2018-06-30T09:44:05.212Z,13.20
2018-06-30T09:46:43.425Z,13.90
2018-06-30T09:49:21.857Z,12.87
2018-06-30T09:51:52.523Z,12.13
2018-06-30T09:54:28.104Z,12.80
2018-06-30T09:56:58.762Z,14.10
2018-06-30T09:59:37.547Z,12.53
2018-06-30T10:02:08.517Z,12.43
2018-06-30T10:04:54.783Z,12.90
2018-06-30T10:07:28.503Z,13.57
2018-06-30T10:10:00.614Z,12.73
2018-06-30T10:12:29.346Z,11.90
2018-06-30T10:14:59.230Z,13.10
2018-06-30T10:17:34.835Z,12.57
2018-06-30T10:20:08.247Z,13.10
2018-06-30T10:22:38.642Z,12.70
2018-06-30T10:25:08.396Z,12.53
2018-06-30T10:27:39.623Z,12.90
2018-06-30T10:30:18.276Z,10.67
2018-06-30T10:33:05.644Z,10.20
2018-06-30T10:35:35.345Z,11.13
2018-06-30T10:38:07.523Z,10.97
2018-06-30T10:40:41.851Z,10.67
2018-06-30T10:43:12.477Z,11.70
2018-06-30T10:45:41.256Z,11.10
2018-06-30T10:48:11.997Z,9.63
2018-06-30T10:50:40.795Z,8.83
2018-06-30T10:53:09.422Z,9.43
2018-06-30T10:55:41.167Z,9.30
2018-06-30T11:01:03.162Z,8.80
2018-06-30T11:03:36.750Z,9.47
2018-06-30T11:06:06.376Z,9.03
2018-06-30T11:08:35.898Z,9.20
2018-06-30T11:11:04.658Z,8.33
2018-06-30T11:13:33.357Z,8.80
2018-06-30T11:16:05.134Z,8.53
2018-06-30T11:18:40.384Z,9.60
2018-06-30T11:21:12.488Z,9.30
2018-06-30T11:23:41.806Z,8.70
2018-06-30T11:26:12.426Z,9.83
2018-06-30T11:28:46.555Z,9.20
2018-06-30T11:31:28.073Z,10.00
2018-06-30T11:34:06.873Z,7.90
2018-06-30T11:36:35.659Z,8.47
2018-06-30T11:39:17.855Z,8.00
2018-06-30T11:41:48.689Z,7.97
2018-06-30T11:44:18.100Z,8.73
2018-06-30T11:46:46.604Z,8.53
2018-06-30T11:49:15.298Z,8.87
2018-06-30T11:51:51.349Z,7.53
2018-06-30T11:54:21.941Z,7.70
2018-06-30T11:56:52.657Z,9.20
2018-06-30T11:59:21.061Z,8.60
2018-06-30T12:02:01.200Z,7.97
2018-06-30T12:04:36.283Z,6.83
2018-06-30T12:07:04.876Z,7.37
2018-06-30T12:09:50.866Z,7.07
2018-06-30T12:12:21.403Z,8.10
2018-06-30T12:15:09.140Z,7.63
2018-06-30T12:17:37.804Z,7.10
2018-06-30T12:20:10.535Z,7.53
2018-06-30T12:22:44.405Z,7.77
2018-06-30T12:25:22.616Z,6.83
2018-06-30T12:27:54.967Z,7.13
2018-06-30T12:30:23.523Z,7.27
2018-06-30T12:33:04.017Z,6.77
2018-06-30T12:35:36.828Z,7.00
2018-06-30T12:38:10.658Z,6.87
2018-06-30T12:40:57.157Z,6.47
2018-06-30T12:43:31.338Z,6.37
2018-06-30T12:46:03.811Z,6.83
2018-06-30T12:48:41.644Z,6.33
2018-06-30T12:51:12.138Z,6.80
2018-06-30T12:53:40.553Z,6.50
2018-06-30T12:56:10.199Z,7.07
2018-06-30T12:58:39.818Z,6.60
2018-06-30T13:01:16.147Z,6.93
2018-06-30T13:03:48.572Z,6.80
2018-06-30T13:06:29.454Z,6.30
2018-06-30T13:08:59.236Z,6.73
2018-06-30T13:11:28.036Z,5.70
2018-06-30T13:14:05.279Z,5.97
2018-06-30T13:16:54.420Z,6.30
2018-06-30T13:19:24.083Z,6.37
2018-06-30T13:21:52.687Z,6.60
2018-06-30T13:24:21.379Z,6.03
2018-06-30T13:26:49.886Z,6.43
2018-06-30T13:29:19.355Z,6.17
2018-06-30T13:31:49.068Z,6.00
2018-06-30T13:34:18.809Z,6.13
2018-06-30T13:36:47.321Z,5.93
2018-06-30T13:39:16.973Z,6.23
2018-06-30T13:41:53.127Z,5.83
2018-06-30T13:44:22.881Z,5.73
2018-06-30T13:47:04.211Z,5.77
2018-06-30T13:49:42.395Z,5.57
2018-06-30T13:52:23.631Z,5.30
2018-06-30T13:54:59.605Z,5.57
2018-06-30T13:57:29.523Z,5.60
2018-06-30T14:00:02.991Z,5.77
2018-06-30T14:02:45.342Z,5.13
2018-06-30T14:05:30.020Z,5.17
2018-06-30T14:11:03.011Z,5.03
2018-06-30T14:13:32.715Z,5.33
2018-06-30T14:16:07.117Z,5.40
2018-06-30T14:18:42.057Z,5.57
2018-06-30T14:24:26.976Z,4.93
2018-06-30T14:29:51.435Z,5.07
2018-06-30T14:32:31.431Z,4.90
2018-06-30T14:34:59.855Z,4.67
2018-06-30T14:37:38.864Z,4.47
2018-06-30T14:40:08.392Z,4.63
2018-06-30T14:42:48.907Z,4.90
2018-06-30T14:45:22.842Z,4.80
2018-06-30T14:47:53.341Z,4.57
2018-06-30T14:50:34.037Z,4.80
2018-06-30T14:53:03.810Z,4.47
2018-06-30T14:55:32.359Z,4.23
2018-06-30T14:58:01.822Z,4.77
2018-06-30T15:00:34.379Z,4.17
2018-06-30T15:03:12.839Z,5.10
2018-06-30T15:05:42.605Z,4.53
2018-06-30T15:08:17.063Z,4.10
2018-06-30T15:10:45.743Z,4.10
2018-06-30T15:13:26.127Z,4.27
2018-06-30T15:16:00.780Z,3.90
2018-06-30T15:18:29.378Z,4.10
2018-06-30T15:21:00.168Z,3.90
2018-06-30T15:23:33.209Z,4.03
2018-06-30T15:26:02.040Z,3.70
2018-06-30T15:28:49.797Z,4.10
2018-06-30T15:31:28.728Z,3.67
2018-06-30T15:33:59.585Z,3.43
2018-06-30T15:36:29.273Z,3.90
2018-06-30T15:38:57.898Z,3.30
2018-06-30T15:41:26.603Z,2.70
2018-06-30T15:44:03.185Z,3.20
2018-06-30T15:46:33.749Z,3.40
2018-06-30T15:49:07.170Z,3.00
2018-06-30T15:51:41.211Z,3.00
2018-06-30T15:54:10.871Z,2.80
2018-06-30T15:56:39.536Z,2.70
2018-06-30T15:59:09.371Z,2.90
2018-06-30T16:01:38.116Z,2.77
2018-06-30T16:04:08.011Z,2.80
2018-06-30T16:06:40.223Z,2.60
2018-06-30T16:09:10.481Z,2.57
2018-06-30T16:11:41.623Z,2.47
2018-06-30T16:14:12.372Z,2.87
2018-06-30T16:16:43.005Z,2.50
2018-06-30T16:19:17.903Z,2.40
2018-06-30T16:21:52.881Z,2.10
2018-06-30T16:24:22.746Z,2.27
2018-06-30T16:27:03.497Z,2.07
2018-06-30T16:29:33.281Z,2.13
2018-06-30T16:32:05.539Z,2.73
2018-06-30T16:34:34.124Z,2.00
2018-06-30T16:37:18.451Z,2.13
2018-06-30T16:39:54.926Z,2.20
2018-06-30T16:42:23.559Z,1.90
2018-06-30T16:44:54.514Z,1.90
2018-06-30T16:47:25.243Z,1.87
2018-06-30T16:49:56.605Z,1.80
2018-06-30T16:52:31.190Z,1.60
2018-06-30T16:54:59.983Z,2.30
2018-06-30T16:57:38.928Z,1.77
2018-06-30T17:00:09.247Z,1.67
2018-06-30T17:02:44.671Z,1.70
2018-06-30T17:05:21.538Z,1.70
2018-06-30T17:08:08.333Z,1.90
2018-06-30T17:10:48.679Z,1.70
2018-06-30T17:13:17.102Z,1.40
2018-06-30T17:15:51.675Z,1.60
2018-06-30T17:18:22.141Z,1.50
2018-06-30T17:20:54.935Z,1.50
2018-06-30T17:23:23.642Z,1.50
2018-06-30T17:25:56.324Z,1.50
2018-06-30T17:28:28.990Z,1.40
2018-06-30T17:30:58.701Z,1.43
2018-06-30T17:33:27.308Z,1.40
2018-06-30T17:36:03.028Z,1.40
2018-06-30T17:38:35.039Z,1.30
2018-06-30T17:41:05.666Z,1.20
2018-06-30T17:43:45.167Z,1.57
2018-06-30T17:46:19.888Z,1.30
2018-06-30T17:49:01.360Z,1.40
2018-06-30T17:51:30.279Z,1.20
2018-06-30T17:54:01.951Z,1.30
2018-06-30T17:56:48.760Z,1.50
2018-06-30T17:59:20.334Z,1.20
2018-06-30T18:01:50.417Z,1.27
2018-06-30T18:04:21.615Z,1.30
2018-06-30T18:06:51.461Z,1.50
2018-06-30T18:09:21.100Z,1.60
2018-06-30T18:11:49.942Z,1.50
2018-06-30T18:14:19.880Z,1.80
2018-06-30T18:16:59.891Z,1.73
2018-06-30T18:19:28.742Z,1.87
2018-06-30T18:22:03.097Z,2.07
2018-06-30T18:24:36.374Z,2.30
2018-06-30T18:27:06.144Z,2.20
2018-06-30T18:29:35.135Z,2.17
2018-06-30T18:32:07.464Z,2.03
2018-06-30T18:34:37.674Z,1.87
2018-06-30T18:37:08.695Z,1.73
2018-06-30T18:39:43.016Z,1.90
2018-06-30T18:42:16.939Z,1.60
2018-06-30T18:44:58.392Z,1.77
2018-06-30T18:50:19.583Z,1.50
2018-06-30T18:52:48.912Z,1.70
2018-06-30T18:55:20.810Z,1.50
2018-06-30T18:57:49.846Z,1.70
2018-06-30T19:00:20.028Z,1.40
2018-06-30T19:03:00.519Z,1.30
2018-06-30T19:05:33.345Z,1.80
2018-06-30T19:08:06.329Z,1.50
2018-06-30T19:10:41.679Z,1.70
2018-06-30T19:13:14.117Z,1.90
2018-06-30T19:15:53.170Z,1.60
2018-06-30T19:18:36.220Z,1.50
2018-06-30T19:21:06.373Z,1.40
2018-06-30T19:23:39.208Z,1.67
2018-06-30T19:26:10.016Z,1.30
2018-06-30T19:28:44.004Z,1.33
2018-06-30T19:31:15.214Z,1.57
2018-06-30T19:33:44.409Z,1.40
2018-06-30T19:36:20.535Z,1.30
2018-06-30T19:38:50.286Z,1.20
2018-06-30T19:41:19.235Z,1.40
2018-06-30T19:43:51.392Z,1.40
2018-06-30T19:46:20.968Z,1.30
2018-06-30T19:48:59.858Z,1.30
2018-06-30T19:51:40.320Z,1.50
2018-06-30T19:54:16.937Z,1.40
2018-06-30T19:56:45.606Z,1.33
2018-06-30T19:59:30.012Z,1.50
2018-06-30T20:02:09.184Z,1.30
2018-06-30T20:04:44.892Z,1.33
2018-06-30T20:07:14.588Z,1.20
2018-06-30T20:09:45.878Z,1.37
2018-06-30T20:12:16.385Z,1.23
2018-06-30T20:14:46.902Z,1.40
2018-06-30T20:17:20.544Z,1.40
2018-06-30T20:19:49.756Z,1.40
2018-06-30T20:22:24.955Z,1.50
2018-06-30T20:24:56.280Z,1.40
2018-06-30T20:27:30.184Z,1.50
2018-06-30T20:30:05.584Z,1.33
2018-06-30T20:32:34.844Z,1.33
2018-06-30T20:35:04.550Z,1.30
2018-06-30T20:37:43.311Z,1.30
2018-06-30T20:40:14.270Z,1.30
2018-06-30T20:42:47.476Z,1.50
2018-06-30T20:45:16.062Z,1.33
2018-06-30T20:47:44.984Z,1.60
2018-06-30T20:50:13.856Z,2.73
2018-06-30T20:52:53.875Z,1.33
2018-06-30T20:55:46.098Z,1.40
2018-06-30T20:58:18.878Z,1.43
2018-06-30T21:00:54.090Z,1.50
2018-06-30T21:03:26.329Z,1.50
2018-06-30T21:05:56.788Z,1.70
2018-06-30T21:08:27.483Z,1.30
2018-06-30T21:11:00.523Z,1.93
2018-06-30T21:13:31.240Z,1.60
2018-06-30T21:16:00.766Z,1.30
2018-06-30T21:18:35.827Z,1.40
2018-06-30T21:21:04.394Z,1.50
2018-06-30T21:23:34.950Z,1.30
2018-06-30T21:26:12.000Z,1.50
2018-06-30T21:28:41.525Z,1.70
2018-06-30T21:31:12.896Z,1.60
2018-06-30T21:33:47.723Z,1.60
2018-06-30T21:36:23.172Z,1.60
2018-06-30T21:38:52.476Z,1.80
2018-06-30T21:41:21.254Z,1.50
2018-06-30T21:43:54.260Z,1.60
2018-06-30T21:46:25.067Z,1.60
2018-06-30T21:48:53.998Z,1.50
2018-06-30T21:51:22.801Z,1.43
2018-06-30T21:53:52.730Z,1.67
2018-06-30T21:56:29.471Z,1.80
2018-06-30T21:58:58.050Z,1.57
2018-06-30T22:01:27.723Z,1.47
2018-06-30T22:03:57.299Z,1.30
2018-06-30T22:06:25.970Z,1.50
2018-06-30T22:08:59.858Z,1.50
2018-06-30T22:11:29.974Z,1.57
2018-06-30T22:13:59.716Z,1.40
2018-06-30T22:16:29.310Z,1.40
2018-06-30T22:18:58.980Z,1.50
2018-06-30T22:21:33.086Z,1.50
2018-06-30T22:24:06.162Z,1.50
2018-06-30T22:26:42.790Z,1.50
2018-06-30T22:29:27.656Z,1.40
2018-06-30T22:32:18.168Z,1.30
2018-06-30T22:35:07.732Z,1.60
2018-06-30T22:37:47.229Z,1.30
2018-06-30T22:40:27.282Z,1.40
2018-06-30T22:43:12.539Z,1.47
2018-06-30T22:45:44.454Z,1.83
2018-06-30T22:48:14.284Z,1.50
2018-06-30T22:53:39.580Z,1.43
2018-06-30T22:56:14.302Z,1.30
2018-06-30T22:58:51.178Z,1.40
2018-06-30T23:01:27.120Z,1.50
2018-06-30T23:03:56.138Z,1.50
2018-06-30T23:06:26.716Z,1.60
2018-06-30T23:08:55.454Z,1.40
2018-06-30T23:11:25.082Z,1.40
2018-06-30T23:13:55.132Z,1.40
2018-06-30T23:16:27.044Z,1.77
2018-06-30T23:18:55.610Z,1.53
2018-06-30T23:21:33.824Z,1.50
2018-06-30T23:24:09.895Z,1.50
2018-06-30T23:26:38.854Z,1.67
2018-06-30T23:29:10.640Z,1.60
2018-06-30T23:31:40.284Z,1.40
2018-06-30T23:34:22.652Z,1.67
2018-06-30T23:36:53.409Z,1.40
2018-06-30T23:39:28.754Z,1.37
2018-06-30T23:42:20.722Z,1.60
2018-06-30T23:44:53.600Z,1.70
2018-06-30T23:47:27.200Z,1.57
2018-06-30T23:50:04.097Z,1.57
2018-06-30T23:52:47.136Z,1.40
2018-06-30T23:55:17.746Z,1.37
2018-06-30T23:58:00.443Z,1.53
